Terminal Aerodrome Forecast
Issued by NWS

Current Version | Previous Version | Text Only | Print | Product List | Glossary On
Versions: 1 2 3 4 5 6 7 8 9 10 11 12 13 14 15 16 17 18 19 20
000
FTUS46 KSGX 202337
TAFCRQ
TAF
KCRQ 202337Z 2100/2124 25008KT P6SM SKC
     FM210100 VRB04KT P6SM SCT010
     FM210400 VRB04KT P6SM BKN010
     FM210700 VRB04KT P6SM BKN009
     FM211700 VRB04KT P6SM SKC
     FM212000 24008KT P6SM SKC=

USA.gov is the U.S. government's official web portal to all federal, state and local government web resources and services.